sensor_id;sensor_type;location;lat;lon;timestamp;temperature;humidity
10538;DHT22;5317;49.048;8.468;2024-03-17T00:02:09;13.20;82.40
10538;DHT22;5317;49.048;8.468;2024-03-17T00:04:34;13.20;82.50
10538;DHT22;5317;49.048;8.468;2024-03-17T00:07:03;13.10;82.50
10538;DHT22;5317;49.048;8.468;2024-03-17T00:09:30;13.10;82.50
10538;DHT22;5317;49.048;8.468;2024-03-17T00:11:56;13.10;82.70
10538;DHT22;5317;49.048;8.468;2024-03-17T00:14:23;13.10;82.70
10538;DHT22;5317;49.048;8.468;2024-03-17T00:16:50;13.10;82.50
10538;DHT22;5317;49.048;8.468;2024-03-17T00:19:15;13.00;82.60
10538;DHT22;5317;49.048;8.468;2024-03-17T00:21:43;13.00;82.90
10538;DHT22;5317;49.048;8.468;2024-03-17T00:24:11;13.00;83.20
10538;DHT22;5317;49.048;8.468;2024-03-17T00:26:39;12.90;83.00
10538;DHT22;5317;49.048;8.468;2024-03-17T00:29:05;12.90;83.00
10538;DHT22;5317;49.048;8.468;2024-03-17T00:31:32;12.90;83.00
10538;DHT22;5317;49.048;8.468;2024-03-17T00:33:57;12.90;82.90
10538;DHT22;5317;49.048;8.468;2024-03-17T00:36:24;12.90;82.70
10538;DHT22;5317;49.048;8.468;2024-03-17T00:38:50;12.80;82.60
10538;DHT22;5317;49.048;8.468;2024-03-17T00:41:18;12.80;82.50
10538;DHT22;5317;49.048;8.468;2024-03-17T00:43:45;12.80;82.40
10538;DHT22;5317;49.048;8.468;2024-03-17T00:46:12;12.70;82.10
10538;DHT22;5317;49.048;8.468;2024-03-17T00:48:38;12.70;82.30
10538;DHT22;5317;49.048;8.468;2024-03-17T00:51:05;12.70;82.50
10538;DHT22;5317;49.048;8.468;2024-03-17T00:53:31;12.70;82.40
10538;DHT22;5317;49.048;8.468;2024-03-17T00:55:57;12.60;82.30
10538;DHT22;5317;49.048;8.468;2024-03-17T00:58:25;12.70;82.50
10538;DHT22;5317;49.048;8.468;2024-03-17T01:00:52;12.60;82.40
10538;DHT22;5317;49.048;8.468;2024-03-17T01:03:18;12.60;82.50
10538;DHT22;5317;49.048;8.468;2024-03-17T01:05:45;12.60;82.50
10538;DHT22;5317;49.048;8.468;2024-03-17T01:08:13;12.50;82.60
10538;DHT22;5317;49.048;8.468;2024-03-17T01:10:41;12.50;82.80
10538;DHT22;5317;49.048;8.468;2024-03-17T01:13:07;12.50;82.70
10538;DHT22;5317;49.048;8.468;2024-03-17T01:15:36;12.50;82.70
10538;DHT22;5317;49.048;8.468;2024-03-17T01:18:02;12.50;82.90
10538;DHT22;5317;49.048;8.468;2024-03-17T01:20:29;12.40;82.80
10538;DHT22;5317;49.048;8.468;2024-03-17T01:22:55;12.40;83.30
10538;DHT22;5317;49.048;8.468;2024-03-17T01:25:22;12.40;82.70
10538;DHT22;5317;49.048;8.468;2024-03-17T01:27:48;12.40;82.80
10538;DHT22;5317;49.048;8.468;2024-03-17T01:30:15;12.40;82.80
10538;DHT22;5317;49.048;8.468;2024-03-17T01:32:42;12.30;82.80
10538;DHT22;5317;49.048;8.468;2024-03-17T01:35:09;12.30;82.90
10538;DHT22;5317;49.048;8.468;2024-03-17T01:37:35;12.30;82.90
10538;DHT22;5317;49.048;8.468;2024-03-17T01:40:02;12.30;83.00
10538;DHT22;5317;49.048;8.468;2024-03-17T01:42:30;12.30;83.20
10538;DHT22;5317;49.048;8.468;2024-03-17T01:44:57;12.30;83.00
10538;DHT22;5317;49.048;8.468;2024-03-17T01:47:22;12.30;83.00
10538;DHT22;5317;49.048;8.468;2024-03-17T01:49:51;12.20;83.30
10538;DHT22;5317;49.048;8.468;2024-03-17T01:52:19;12.20;84.40
10538;DHT22;5317;49.048;8.468;2024-03-17T01:54:47;12.20;83.60
10538;DHT22;5317;49.048;8.468;2024-03-17T01:57:13;12.10;83.40
10538;DHT22;5317;49.048;8.468;2024-03-17T01:59:40;12.20;83.60
10538;DHT22;5317;49.048;8.468;2024-03-17T02:02:06;12.20;83.70
10538;DHT22;5317;49.048;8.468;2024-03-17T02:04:33;12.10;83.70
10538;DHT22;5317;49.048;8.468;2024-03-17T02:07:01;12.10;83.90
10538;DHT22;5317;49.048;8.468;2024-03-17T02:09:28;12.10;84.00
10538;DHT22;5317;49.048;8.468;2024-03-17T02:11:54;12.10;84.00
10538;DHT22;5317;49.048;8.468;2024-03-17T02:14:21;12.10;84.00
10538;DHT22;5317;49.048;8.468;2024-03-17T02:16:47;12.10;83.90
10538;DHT22;5317;49.048;8.468;2024-03-17T02:19:14;12.10;83.80
10538;DHT22;5317;49.048;8.468;2024-03-17T02:21:39;12.10;83.80
10538;DHT22;5317;49.048;8.468;2024-03-17T02:24:09;12.10;83.60
10538;DHT22;5317;49.048;8.468;2024-03-17T02:26:35;12.00;83.60
10538;DHT22;5317;49.048;8.468;2024-03-17T02:29:03;12.00;83.50
10538;DHT22;5317;49.048;8.468;2024-03-17T02:31:29;12.00;83.60
10538;DHT22;5317;49.048;8.468;2024-03-17T02:33:56;12.00;83.70
10538;DHT22;5317;49.048;8.468;2024-03-17T02:36:22;11.90;83.60
10538;DHT22;5317;49.048;8.468;2024-03-17T02:38:49;11.90;83.70
10538;DHT22;5317;49.048;8.468;2024-03-17T02:41:35;11.90;83.60
10538;DHT22;5317;49.048;8.468;2024-03-17T02:44:01;11.90;83.50
10538;DHT22;5317;49.048;8.468;2024-03-17T02:46:28;11.90;83.50
10538;DHT22;5317;49.048;8.468;2024-03-17T02:48:55;11.80;84.10
10538;DHT22;5317;49.048;8.468;2024-03-17T02:51:22;11.80;83.20
10538;DHT22;5317;49.048;8.468;2024-03-17T02:53:50;11.80;83.20
10538;DHT22;5317;49.048;8.468;2024-03-17T02:56:17;11.80;83.30
10538;DHT22;5317;49.048;8.468;2024-03-17T02:58:46;11.80;83.30
10538;DHT22;5317;49.048;8.468;2024-03-17T03:01:14;11.80;83.00
10538;DHT22;5317;49.048;8.468;2024-03-17T03:03:42;11.70;82.70
10538;DHT22;5317;49.048;8.468;2024-03-17T03:06:08;11.70;82.90
10538;DHT22;5317;49.048;8.468;2024-03-17T03:08:37;11.60;82.90
10538;DHT22;5317;49.048;8.468;2024-03-17T03:11:06;11.60;82.90
10538;DHT22;5317;49.048;8.468;2024-03-17T03:13:36;11.60;83.00
10538;DHT22;5317;49.048;8.468;2024-03-17T03:16:06;11.50;83.00
10538;DHT22;5317;49.048;8.468;2024-03-17T03:18:33;11.50;83.30
10538;DHT22;5317;49.048;8.468;2024-03-17T03:21:00;11.50;83.60
10538;DHT22;5317;49.048;8.468;2024-03-17T03:23:27;11.40;83.50
10538;DHT22;5317;49.048;8.468;2024-03-17T03:25:57;11.40;83.50
10538;DHT22;5317;49.048;8.468;2024-03-17T03:28:25;11.40;84.50
10538;DHT22;5317;49.048;8.468;2024-03-17T03:30:52;11.40;83.90
10538;DHT22;5317;49.048;8.468;2024-03-17T03:33:21;11.30;83.60
10538;DHT22;5317;49.048;8.468;2024-03-17T03:35:48;11.30;83.70
10538;DHT22;5317;49.048;8.468;2024-03-17T03:38:16;11.40;83.60
10538;DHT22;5317;49.048;8.468;2024-03-17T03:40:44;11.40;83.50
10538;DHT22;5317;49.048;8.468;2024-03-17T03:43:11;11.30;83.40
10538;DHT22;5317;49.048;8.468;2024-03-17T03:45:39;11.30;83.50
10538;DHT22;5317;49.048;8.468;2024-03-17T03:48:07;11.30;83.40
10538;DHT22;5317;49.048;8.468;2024-03-17T03:50:37;11.30;83.30
10538;DHT22;5317;49.048;8.468;2024-03-17T03:53:04;11.30;83.50
10538;DHT22;5317;49.048;8.468;2024-03-17T03:55:32;11.30;83.60
10538;DHT22;5317;49.048;8.468;2024-03-17T03:57:59;11.30;83.80
10538;DHT22;5317;49.048;8.468;2024-03-17T04:00:26;11.30;83.60
10538;DHT22;5317;49.048;8.468;2024-03-17T04:02:57;11.30;83.50
10538;DHT22;5317;49.048;8.468;2024-03-17T04:05:24;11.30;83.50
10538;DHT22;5317;49.048;8.468;2024-03-17T04:07:53;11.20;83.40
10538;DHT22;5317;49.048;8.468;2024-03-17T04:10:20;11.30;83.40
10538;DHT22;5317;49.048;8.468;2024-03-17T04:12:46;11.20;84.00
10538;DHT22;5317;49.048;8.468;2024-03-17T04:15:14;11.30;83.40
10538;DHT22;5317;49.048;8.468;2024-03-17T04:17:41;11.20;83.30
10538;DHT22;5317;49.048;8.468;2024-03-17T04:20:09;11.20;84.00
10538;DHT22;5317;49.048;8.468;2024-03-17T04:22:39;11.20;83.20
10538;DHT22;5317;49.048;8.468;2024-03-17T04:25:08;11.20;83.10
10538;DHT22;5317;49.048;8.468;2024-03-17T04:27:35;11.20;83.00
10538;DHT22;5317;49.048;8.468;2024-03-17T04:30:01;11.10;82.80
10538;DHT22;5317;49.048;8.468;2024-03-17T04:32:31;11.10;82.80
10538;DHT22;5317;49.048;8.468;2024-03-17T04:34:58;11.10;83.50
10538;DHT22;5317;49.048;8.468;2024-03-17T04:37:25;11.00;82.60
10538;DHT22;5317;49.048;8.468;2024-03-17T04:39:53;11.00;82.60
10538;DHT22;5317;49.048;8.468;2024-03-17T04:42:24;11.00;83.00
10538;DHT22;5317;49.048;8.468;2024-03-17T04:44:51;10.90;82.80
10538;DHT22;5317;49.048;8.468;2024-03-17T04:47:18;10.90;82.70
10538;DHT22;5317;49.048;8.468;2024-03-17T04:49:45;10.90;82.80
10538;DHT22;5317;49.048;8.468;2024-03-17T04:52:12;10.90;82.90
10538;DHT22;5317;49.048;8.468;2024-03-17T04:54:40;10.90;83.00
10538;DHT22;5317;49.048;8.468;2024-03-17T04:57:08;10.80;83.10
10538;DHT22;5317;49.048;8.468;2024-03-17T04:59:37;10.80;83.00
10538;DHT22;5317;49.048;8.468;2024-03-17T05:02:04;10.80;83.30
10538;DHT22;5317;49.048;8.468;2024-03-17T05:04:31;10.70;83.20
10538;DHT22;5317;49.048;8.468;2024-03-17T05:06:58;10.80;83.30
10538;DHT22;5317;49.048;8.468;2024-03-17T05:09:24;10.80;83.30
10538;DHT22;5317;49.048;8.468;2024-03-17T05:11:51;10.70;83.20
10538;DHT22;5317;49.048;8.468;2024-03-17T05:14:18;10.70;83.50
10538;DHT22;5317;49.048;8.468;2024-03-17T05:16:48;10.70;83.50
10538;DHT22;5317;49.048;8.468;2024-03-17T05:19:15;10.70;83.60
10538;DHT22;5317;49.048;8.468;2024-03-17T05:21:43;10.70;83.40
10538;DHT22;5317;49.048;8.468;2024-03-17T05:24:10;10.70;83.20
10538;DHT22;5317;49.048;8.468;2024-03-17T05:26:38;10.70;83.20
10538;DHT22;5317;49.048;8.468;2024-03-17T05:29:05;10.60;83.00
10538;DHT22;5317;49.048;8.468;2024-03-17T05:31:32;10.60;83.00
10538;DHT22;5317;49.048;8.468;2024-03-17T05:34:00;10.60;83.30
10538;DHT22;5317;49.048;8.468;2024-03-17T05:36:27;10.60;83.30
10538;DHT22;5317;49.048;8.468;2024-03-17T05:38:58;10.60;83.00
10538;DHT22;5317;49.048;8.468;2024-03-17T05:41:25;10.60;83.00
10538;DHT22;5317;49.048;8.468;2024-03-17T05:43:51;10.60;83.00
10538;DHT22;5317;49.048;8.468;2024-03-17T05:46:18;10.60;83.00
10538;DHT22;5317;49.048;8.468;2024-03-17T05:48:45;10.50;83.60
10538;DHT22;5317;49.048;8.468;2024-03-17T05:51:13;10.50;82.70
10538;DHT22;5317;49.048;8.468;2024-03-17T05:53:41;10.50;82.60
10538;DHT22;5317;49.048;8.468;2024-03-17T05:56:10;10.50;82.70
10538;DHT22;5317;49.048;8.468;2024-03-17T05:58:38;10.50;83.00
10538;DHT22;5317;49.048;8.468;2024-03-17T06:01:06;10.50;83.00
10538;DHT22;5317;49.048;8.468;2024-03-17T06:03:33;10.50;83.50
10538;DHT22;5317;49.048;8.468;2024-03-17T06:06:02;10.50;83.60
10538;DHT22;5317;49.048;8.468;2024-03-17T06:08:30;10.50;83.60
10538;DHT22;5317;49.048;8.468;2024-03-17T06:10:57;10.50;83.60
10538;DHT22;5317;49.048;8.468;2024-03-17T06:13:25;10.50;83.60
10538;DHT22;5317;49.048;8.468;2024-03-17T06:15:53;10.50;83.70
10538;DHT22;5317;49.048;8.468;2024-03-17T06:18:20;10.50;83.80
10538;DHT22;5317;49.048;8.468;2024-03-17T06:20:49;10.60;84.20
10538;DHT22;5317;49.048;8.468;2024-03-17T06:23:15;10.60;84.50
10538;DHT22;5317;49.048;8.468;2024-03-17T06:25:45;10.60;84.60
10538;DHT22;5317;49.048;8.468;2024-03-17T06:28:13;10.60;84.70
10538;DHT22;5317;49.048;8.468;2024-03-17T06:30:40;10.60;85.00
10538;DHT22;5317;49.048;8.468;2024-03-17T06:33:07;10.60;85.00
10538;DHT22;5317;49.048;8.468;2024-03-17T06:35:36;10.70;85.20
10538;DHT22;5317;49.048;8.468;2024-03-17T06:38:03;10.70;85.30
10538;DHT22;5317;49.048;8.468;2024-03-17T06:40:31;10.80;85.70
10538;DHT22;5317;49.048;8.468;2024-03-17T06:42:59;10.90;86.20
10538;DHT22;5317;49.048;8.468;2024-03-17T06:45:26;10.90;86.60
10538;DHT22;5317;49.048;8.468;2024-03-17T06:47:53;11.00;86.70
10538;DHT22;5317;49.048;8.468;2024-03-17T06:50:20;11.10;87.90
10538;DHT22;5317;49.048;8.468;2024-03-17T06:52:47;11.20;87.50
10538;DHT22;5317;49.048;8.468;2024-03-17T06:55:14;11.20;87.70
10538;DHT22;5317;49.048;8.468;2024-03-17T06:57:41;11.30;87.90
10538;DHT22;5317;49.048;8.468;2024-03-17T07:00:12;11.40;88.10
10538;DHT22;5317;49.048;8.468;2024-03-17T07:02:41;11.50;88.40
10538;DHT22;5317;49.048;8.468;2024-03-17T07:05:11;11.60;88.60
10538;DHT22;5317;49.048;8.468;2024-03-17T07:07:40;11.70;89.10
10538;DHT22;5317;49.048;8.468;2024-03-17T07:10:07;11.80;89.10
10538;DHT22;5317;49.048;8.468;2024-03-17T07:12:34;11.90;89.40
10538;DHT22;5317;49.048;8.468;2024-03-17T07:15:01;12.00;89.00
10538;DHT22;5317;49.048;8.468;2024-03-17T07:17:30;12.10;89.10
10538;DHT22;5317;49.048;8.468;2024-03-17T07:19:57;12.20;89.40
10538;DHT22;5317;49.048;8.468;2024-03-17T07:22:23;12.30;89.20
10538;DHT22;5317;49.048;8.468;2024-03-17T07:24:52;12.40;89.40
10538;DHT22;5317;49.048;8.468;2024-03-17T07:27:21;12.50;89.40
10538;DHT22;5317;49.048;8.468;2024-03-17T07:29:48;12.60;89.60
10538;DHT22;5317;49.048;8.468;2024-03-17T07:32:15;12.70;89.60
10538;DHT22;5317;49.048;8.468;2024-03-17T07:34:43;12.80;89.50
10538;DHT22;5317;49.048;8.468;2024-03-17T07:37:10;12.90;89.40
10538;DHT22;5317;49.048;8.468;2024-03-17T07:39:37;12.90;89.20
10538;DHT22;5317;49.048;8.468;2024-03-17T07:42:04;13.00;89.40
10538;DHT22;5317;49.048;8.468;2024-03-17T07:44:32;13.10;89.60
10538;DHT22;5317;49.048;8.468;2024-03-17T07:47:00;13.20;89.60
10538;DHT22;5317;49.048;8.468;2024-03-17T07:49:27;13.20;89.20
10538;DHT22;5317;49.048;8.468;2024-03-17T07:51:55;13.30;89.20
10538;DHT22;5317;49.048;8.468;2024-03-17T07:54:23;13.30;88.90
10538;DHT22;5317;49.048;8.468;2024-03-17T07:56:50;13.50;88.90
10538;DHT22;5317;49.048;8.468;2024-03-17T07:59:17;13.40;88.70
10538;DHT22;5317;49.048;8.468;2024-03-17T08:01:44;13.50;89.00
10538;DHT22;5317;49.048;8.468;2024-03-17T08:04:11;13.60;88.80
10538;DHT22;5317;49.048;8.468;2024-03-17T08:06:38;13.70;88.90
10538;DHT22;5317;49.048;8.468;2024-03-17T08:09:07;13.70;88.50
10538;DHT22;5317;49.048;8.468;2024-03-17T08:11:34;13.80;88.30
10538;DHT22;5317;49.048;8.468;2024-03-17T08:14:01;13.90;88.20
10538;DHT22;5317;49.048;8.468;2024-03-17T08:16:28;14.00;88.10
10538;DHT22;5317;49.048;8.468;2024-03-17T08:18:55;14.00;87.90
10538;DHT22;5317;49.048;8.468;2024-03-17T08:21:22;14.10;87.90
10538;DHT22;5317;49.048;8.468;2024-03-17T08:23:50;14.20;87.90
10538;DHT22;5317;49.048;8.468;2024-03-17T08:26:18;14.20;88.20
10538;DHT22;5317;49.048;8.468;2024-03-17T08:28:45;14.20;88.50
10538;DHT22;5317;49.048;8.468;2024-03-17T08:31:13;14.40;89.30
10538;DHT22;5317;49.048;8.468;2024-03-17T08:33:41;14.40;88.40
10538;DHT22;5317;49.048;8.468;2024-03-17T08:36:08;14.50;88.00
10538;DHT22;5317;49.048;8.468;2024-03-17T08:38:37;14.50;87.50
10538;DHT22;5317;49.048;8.468;2024-03-17T08:41:05;14.60;87.90
10538;DHT22;5317;49.048;8.468;2024-03-17T08:43:34;14.70;88.50
10538;DHT22;5317;49.048;8.468;2024-03-17T08:46:02;14.70;88.50
10538;DHT22;5317;49.048;8.468;2024-03-17T08:48:32;14.80;88.50
10538;DHT22;5317;49.048;8.468;2024-03-17T08:50:59;14.90;88.50
10538;DHT22;5317;49.048;8.468;2024-03-17T08:53:27;14.90;88.30
10538;DHT22;5317;49.048;8.468;2024-03-17T08:55:55;15.00;88.10
10538;DHT22;5317;49.048;8.468;2024-03-17T08:58:22;15.10;87.90
10538;DHT22;5317;49.048;8.468;2024-03-17T09:00:54;15.10;87.70
10538;DHT22;5317;49.048;8.468;2024-03-17T09:03:21;15.10;87.60
10538;DHT22;5317;49.048;8.468;2024-03-17T09:05:49;15.20;87.70
10538;DHT22;5317;49.048;8.468;2024-03-17T09:08:21;15.30;87.60
10538;DHT22;5317;49.048;8.468;2024-03-17T09:10:49;15.30;87.20
10538;DHT22;5317;49.048;8.468;2024-03-17T09:13:17;15.40;87.00
10538;DHT22;5317;49.048;8.468;2024-03-17T09:15:54;15.50;87.00
10538;DHT22;5317;49.048;8.468;2024-03-17T09:18:22;15.60;87.00
10538;DHT22;5317;49.048;8.468;2024-03-17T09:20:56;15.60;86.60
10538;DHT22;5317;49.048;8.468;2024-03-17T09:23:23;15.70;86.60
10538;DHT22;5317;49.048;8.468;2024-03-17T09:25:56;15.80;86.40
10538;DHT22;5317;49.048;8.468;2024-03-17T09:28:22;15.90;86.40
10538;DHT22;5317;49.048;8.468;2024-03-17T09:30:51;16.00;86.40
10538;DHT22;5317;49.048;8.468;2024-03-17T09:33:20;16.10;86.10
10538;DHT22;5317;49.048;8.468;2024-03-17T09:35:53;16.20;86.60
10538;DHT22;5317;49.048;8.468;2024-03-17T09:38:20;16.20;86.70
10538;DHT22;5317;49.048;8.468;2024-03-17T09:40:48;16.40;86.40
10538;DHT22;5317;49.048;8.468;2024-03-17T09:43:18;16.40;86.00
10538;DHT22;5317;49.048;8.468;2024-03-17T09:45:45;16.60;86.00
10538;DHT22;5317;49.048;8.468;2024-03-17T09:48:15;16.60;85.70
10538;DHT22;5317;49.048;8.468;2024-03-17T09:50:50;16.70;85.40
10538;DHT22;5317;49.048;8.468;2024-03-17T09:53:22;16.80;85.30
10538;DHT22;5317;49.048;8.468;2024-03-17T09:55:49;16.80;85.10
10538;DHT22;5317;49.048;8.468;2024-03-17T09:58:16;16.80;84.90
10538;DHT22;5317;49.048;8.468;2024-03-17T10:00:44;16.90;84.90
10538;DHT22;5317;49.048;8.468;2024-03-17T10:03:10;17.00;84.90
10538;DHT22;5317;49.048;8.468;2024-03-17T10:05:38;17.10;84.40
10538;DHT22;5317;49.048;8.468;2024-03-17T10:08:07;17.20;84.50
10538;DHT22;5317;49.048;8.468;2024-03-17T10:10:52;17.40;84.40
10538;DHT22;5317;49.048;8.468;2024-03-17T10:13:19;17.60;84.10
10538;DHT22;5317;49.048;8.468;2024-03-17T10:15:48;17.70;83.90
10538;DHT22;5317;49.048;8.468;2024-03-17T10:18:21;17.80;83.80
10538;DHT22;5317;49.048;8.468;2024-03-17T10:20:48;17.90;83.40
10538;DHT22;5317;49.048;8.468;2024-03-17T10:23:19;18.10;83.40
10538;DHT22;5317;49.048;8.468;2024-03-17T10:25:46;18.20;82.50
10538;DHT22;5317;49.048;8.468;2024-03-17T10:28:15;18.30;82.60
10538;DHT22;5317;49.048;8.468;2024-03-17T10:30:42;18.40;81.90
10538;DHT22;5317;49.048;8.468;2024-03-17T10:33:24;18.60;82.00
10538;DHT22;5317;49.048;8.468;2024-03-17T10:35:58;18.60;81.60
10538;DHT22;5317;49.048;8.468;2024-03-17T10:38:27;18.70;81.60
10538;DHT22;5317;49.048;8.468;2024-03-17T10:40:55;18.80;81.30
10538;DHT22;5317;49.048;8.468;2024-03-17T10:43:22;18.90;80.70
10538;DHT22;5317;49.048;8.468;2024-03-17T10:45:52;19.10;80.40
10538;DHT22;5317;49.048;8.468;2024-03-17T10:48:21;19.10;80.10
10538;DHT22;5317;49.048;8.468;2024-03-17T10:50:53;19.20;79.80
10538;DHT22;5317;49.048;8.468;2024-03-17T10:53:22;19.30;79.70
10538;DHT22;5317;49.048;8.468;2024-03-17T10:56:02;19.50;79.20
10538;DHT22;5317;49.048;8.468;2024-03-17T10:58:34;19.50;78.30
10538;DHT22;5317;49.048;8.468;2024-03-17T11:01:02;19.60;78.50
10538;DHT22;5317;49.048;8.468;2024-03-17T11:03:31;19.80;78.60
10538;DHT22;5317;49.048;8.468;2024-03-17T11:06:00;19.90;77.90
10538;DHT22;5317;49.048;8.468;2024-03-17T11:08:30;19.90;77.00
10538;DHT22;5317;49.048;8.468;2024-03-17T11:11:00;20.00;76.40
10538;DHT22;5317;49.048;8.468;2024-03-17T11:13:28;20.10;76.90
10538;DHT22;5317;49.048;8.468;2024-03-17T11:15:55;20.20;77.20
10538;DHT22;5317;49.048;8.468;2024-03-17T11:18:37;20.30;77.50
10538;DHT22;5317;49.048;8.468;2024-03-17T11:21:05;20.40;75.10
10538;DHT22;5317;49.048;8.468;2024-03-17T11:23:40;20.50;76.00
10538;DHT22;5317;49.048;8.468;2024-03-17T11:26:09;20.60;75.50
10538;DHT22;5317;49.048;8.468;2024-03-17T11:28:50;20.60;74.70
10538;DHT22;5317;49.048;8.468;2024-03-17T11:31:41;20.70;72.70
10538;DHT22;5317;49.048;8.468;2024-03-17T11:34:33;20.70;68.90
10538;DHT22;5317;49.048;8.468;2024-03-17T11:37:01;20.70;70.90
10538;DHT22;5317;49.048;8.468;2024-03-17T11:39:50;20.80;72.10
10538;DHT22;5317;49.048;8.468;2024-03-17T11:42:20;20.80;68.60
10538;DHT22;5317;49.048;8.468;2024-03-17T11:44:59;20.90;70.80
10538;DHT22;5317;49.048;8.468;2024-03-17T11:47:43;20.90;70.30
10538;DHT22;5317;49.048;8.468;2024-03-17T11:50:12;20.90;69.40
10538;DHT22;5317;49.048;8.468;2024-03-17T11:52:39;20.90;68.40
10538;DHT22;5317;49.048;8.468;2024-03-17T11:55:17;20.80;67.30
10538;DHT22;5317;49.048;8.468;2024-03-17T11:57:44;20.70;64.10
10538;DHT22;5317;49.048;8.468;2024-03-17T12:00:21;20.50;65.40
10538;DHT22;5317;49.048;8.468;2024-03-17T12:02:49;20.40;64.90
10538;DHT22;5317;49.048;8.468;2024-03-17T12:05:16;20.30;65.50
10538;DHT22;5317;49.048;8.468;2024-03-17T12:07:42;20.30;65.20
10538;DHT22;5317;49.048;8.468;2024-03-17T12:10:10;20.20;65.00
10538;DHT22;5317;49.048;8.468;2024-03-17T12:12:39;20.20;64.70
10538;DHT22;5317;49.048;8.468;2024-03-17T12:15:16;20.10;64.60
10538;DHT22;5317;49.048;8.468;2024-03-17T12:17:42;20.10;65.30
10538;DHT22;5317;49.048;8.468;2024-03-17T12:20:17;20.00;64.80
10538;DHT22;5317;49.048;8.468;2024-03-17T12:22:43;20.00;64.40
10538;DHT22;5317;49.048;8.468;2024-03-17T12:25:17;20.00;64.80
10538;DHT22;5317;49.048;8.468;2024-03-17T12:27:44;20.00;64.60
10538;DHT22;5317;49.048;8.468;2024-03-17T12:30:13;20.10;65.00
10538;DHT22;5317;49.048;8.468;2024-03-17T12:32:39;20.20;65.00
10538;DHT22;5317;49.048;8.468;2024-03-17T12:35:16;20.30;64.50
10538;DHT22;5317;49.048;8.468;2024-03-17T12:37:44;20.30;63.90
10538;DHT22;5317;49.048;8.468;2024-03-17T12:40:18;20.30;63.00
10538;DHT22;5317;49.048;8.468;2024-03-17T12:42:48;20.00;62.10
10538;DHT22;5317;49.048;8.468;2024-03-17T12:45:14;19.80;63.30
10538;DHT22;5317;49.048;8.468;2024-03-17T12:47:47;19.80;63.80
10538;DHT22;5317;49.048;8.468;2024-03-17T12:50:15;19.90;64.50
10538;DHT22;5317;49.048;8.468;2024-03-17T12:52:51;19.90;63.30
10538;DHT22;5317;49.048;8.468;2024-03-17T12:55:19;19.70;61.90
10538;DHT22;5317;49.048;8.468;2024-03-17T12:58:08;19.60;63.40
10538;DHT22;5317;49.048;8.468;2024-03-17T13:01:00;19.60;63.30
10538;DHT22;5317;49.048;8.468;2024-03-17T13:03:28;19.80;62.80
10538;DHT22;5317;49.048;8.468;2024-03-17T13:05:57;19.90;63.40
10538;DHT22;5317;49.048;8.468;2024-03-17T13:08:24;19.90;62.90
10538;DHT22;5317;49.048;8.468;2024-03-17T13:10:51;20.00;63.20
10538;DHT22;5317;49.048;8.468;2024-03-17T13:13:18;20.00;63.40
10538;DHT22;5317;49.048;8.468;2024-03-17T13:15:45;20.10;63.50
10538;DHT22;5317;49.048;8.468;2024-03-17T13:18:19;20.20;62.80
10538;DHT22;5317;49.048;8.468;2024-03-17T13:20:46;20.40;62.60
10538;DHT22;5317;49.048;8.468;2024-03-17T13:23:16;20.50;62.30
10538;DHT22;5317;49.048;8.468;2024-03-17T13:25:43;20.60;61.70
10538;DHT22;5317;49.048;8.468;2024-03-17T13:28:11;20.70;61.50
10538;DHT22;5317;49.048;8.468;2024-03-17T13:30:38;20.70;61.50
10538;DHT22;5317;49.048;8.468;2024-03-17T13:33:06;20.70;61.40
10538;DHT22;5317;49.048;8.468;2024-03-17T13:35:36;20.70;61.50
10538;DHT22;5317;49.048;8.468;2024-03-17T13:38:05;20.60;61.70
10538;DHT22;5317;49.048;8.468;2024-03-17T13:40:34;20.60;61.60
10538;DHT22;5317;49.048;8.468;2024-03-17T13:43:01;20.50;61.80
10538;DHT22;5317;49.048;8.468;2024-03-17T13:45:30;20.50;61.30
10538;DHT22;5317;49.048;8.468;2024-03-17T13:47:58;20.50;61.10
10538;DHT22;5317;49.048;8.468;2024-03-17T13:50:26;20.40;61.00
10538;DHT22;5317;49.048;8.468;2024-03-17T13:52:53;20.30;61.00
10538;DHT22;5317;49.048;8.468;2024-03-17T13:55:21;20.30;60.80
10538;DHT22;5317;49.048;8.468;2024-03-17T13:57:50;20.30;61.40
10538;DHT22;5317;49.048;8.468;2024-03-17T14:00:18;20.50;62.00
10538;DHT22;5317;49.048;8.468;2024-03-17T14:02:47;20.70;61.10
10538;DHT22;5317;49.048;8.468;2024-03-17T14:05:16;21.10;61.10
10538;DHT22;5317;49.048;8.468;2024-03-17T14:07:43;21.20;59.50
10538;DHT22;5317;49.048;8.468;2024-03-17T14:10:12;21.20;59.30
10538;DHT22;5317;49.048;8.468;2024-03-17T14:12:39;21.10;60.00
10538;DHT22;5317;49.048;8.468;2024-03-17T14:15:10;21.30;58.70
10538;DHT22;5317;49.048;8.468;2024-03-17T14:17:37;21.20;59.10
10538;DHT22;5317;49.048;8.468;2024-03-17T14:20:05;21.30;59.10
10538;DHT22;5317;49.048;8.468;2024-03-17T14:22:35;21.10;58.20
10538;DHT22;5317;49.048;8.468;2024-03-17T14:25:02;21.30;59.20
10538;DHT22;5317;49.048;8.468;2024-03-17T14:27:29;21.40;58.80
10538;DHT22;5317;49.048;8.468;2024-03-17T14:29:55;21.50;58.70
10538;DHT22;5317;49.048;8.468;2024-03-17T14:32:24;21.60;58.80
10538;DHT22;5317;49.048;8.468;2024-03-17T14:34:51;21.80;58.10
10538;DHT22;5317;49.048;8.468;2024-03-17T14:37:18;21.90;58.10
10538;DHT22;5317;49.048;8.468;2024-03-17T14:39:45;22.50;57.70
10538;DHT22;5317;49.048;8.468;2024-03-17T14:42:12;23.00;57.20
10538;DHT22;5317;49.048;8.468;2024-03-17T14:44:39;23.40;56.10
10538;DHT22;5317;49.048;8.468;2024-03-17T14:47:06;23.80;56.30
10538;DHT22;5317;49.048;8.468;2024-03-17T14:49:35;24.40;55.50
10538;DHT22;5317;49.048;8.468;2024-03-17T14:52:02;25.30;54.30
10538;DHT22;5317;49.048;8.468;2024-03-17T14:54:31;26.10;52.90
10538;DHT22;5317;49.048;8.468;2024-03-17T14:56:58;26.90;51.80
10538;DHT22;5317;49.048;8.468;2024-03-17T14:59:25;27.80;50.20
10538;DHT22;5317;49.048;8.468;2024-03-17T15:01:52;29.00;48.60
10538;DHT22;5317;49.048;8.468;2024-03-17T15:04:20;30.20;47.20
10538;DHT22;5317;49.048;8.468;2024-03-17T15:06:48;31.10;44.90
10538;DHT22;5317;49.048;8.468;2024-03-17T15:09:20;31.00;43.40
10538;DHT22;5317;49.048;8.468;2024-03-17T15:11:47;29.70;43.50
10538;DHT22;5317;49.048;8.468;2024-03-17T15:14:14;28.30;44.20
10538;DHT22;5317;49.048;8.468;2024-03-17T15:16:41;26.90;45.70
10538;DHT22;5317;49.048;8.468;2024-03-17T15:19:08;25.70;47.20
10538;DHT22;5317;49.048;8.468;2024-03-17T15:21:35;24.70;48.60
10538;DHT22;5317;49.048;8.468;2024-03-17T15:24:04;23.90;49.40
10538;DHT22;5317;49.048;8.468;2024-03-17T15:26:32;23.20;50.50
10538;DHT22;5317;49.048;8.468;2024-03-17T15:28:59;22.70;51.10
10538;DHT22;5317;49.048;8.468;2024-03-17T15:31:29;22.10;51.60
10538;DHT22;5317;49.048;8.468;2024-03-17T15:33:56;21.70;52.50
10538;DHT22;5317;49.048;8.468;2024-03-17T15:36:23;21.30;53.10
10538;DHT22;5317;49.048;8.468;2024-03-17T15:38:51;20.90;54.00
10538;DHT22;5317;49.048;8.468;2024-03-17T15:41:19;20.60;54.70
10538;DHT22;5317;49.048;8.468;2024-03-17T15:43:46;20.30;55.90
10538;DHT22;5317;49.048;8.468;2024-03-17T15:46:15;20.10;56.10
10538;DHT22;5317;49.048;8.468;2024-03-17T15:48:41;19.90;56.10
10538;DHT22;5317;49.048;8.468;2024-03-17T15:51:08;19.70;56.50
10538;DHT22;5317;49.048;8.468;2024-03-17T15:53:35;19.60;57.10